sensor_id;sensor_type;location;lat;lon;timestamp;pressure;altitude;pressure_sealevel;temperature;humidity
59513;BME280;45330;51.634;5.562;2023-04-02T00:01:24;101005.91;;;5.37;100.00
59513;BME280;45330;51.634;5.562;2023-04-02T00:09:00;101017.91;;;5.35;100.00
59513;BME280;45330;51.634;5.562;2023-04-02T00:11:32;101003.78;;;5.14;100.00
59513;BME280;45330;51.634;5.562;2023-04-02T00:14:00;101016.63;;;5.12;100.00
59513;BME280;45330;51.634;5.562;2023-04-02T00:16:26;101021.88;;;5.17;100.00
59513;BME280;45330;51.634;5.562;2023-04-02T00:18:54;101029.56;;;5.14;100.00
59513;BME280;45330;51.634;5.562;2023-04-02T00:21:25;101020.84;;;5.07;100.00
59513;BME280;45330;51.634;5.562;2023-04-02T00:23:54;101017.34;;;5.04;100.00
59513;BME280;45330;51.634;5.562;2023-04-02T00:26:24;101057.13;;;5.17;100.00
59513;BME280;45330;51.634;5.562;2023-04-02T00:28:53;101035.41;;;5.04;100.00
59513;BME280;45330;51.634;5.562;2023-04-02T00:31:19;101028.25;;;4.92;100.00
59513;BME280;45330;51.634;5.562;2023-04-02T00:33:45;101053.38;;;5.01;100.00
59513;BME280;45330;51.634;5.562;2023-04-02T00:36:12;101058.53;;;5.01;100.00
59513;BME280;45330;51.634;5.562;2023-04-02T00:38:37;101071.56;;;5.07;100.00
59513;BME280;45330;51.634;5.562;2023-04-02T00:41:13;101073.19;;;5.03;100.00
59513;BME280;45330;51.634;5.562;2023-04-02T00:43:43;101055.00;;;4.95;100.00
59513;BME280;45330;51.634;5.562;2023-04-02T00:46:14;101065.44;;;5.02;100.00
59513;BME280;45330;51.634;5.562;2023-04-02T00:48:47;101086.19;;;5.08;100.00
59513;BME280;45330;51.634;5.562;2023-04-02T00:51:28;101078.38;;;5.05;100.00
59513;BME280;45330;51.634;5.562;2023-04-02T00:53:57;101091.25;;;5.03;100.00
59513;BME280;45330;51.634;5.562;2023-04-02T00:56:30;101081.66;;;4.96;100.00
59513;BME280;45330;51.634;5.562;2023-04-02T00:58:56;101089.44;;;4.99;100.00
59513;BME280;45330;51.634;5.562;2023-04-02T01:01:25;101075.41;;;4.86;100.00
59513;BME280;45330;51.634;5.562;2023-04-02T01:03:59;101099.59;;;4.91;100.00
59513;BME280;45330;51.634;5.562;2023-04-02T01:06:34;101091.03;;;4.92;100.00
59513;BME280;45330;51.634;5.562;2023-04-02T01:23:22;101150.06;;;4.80;100.00
59513;BME280;45330;51.634;5.562;2023-04-02T01:31:38;101148.03;;;4.67;100.00
59513;BME280;45330;51.634;5.562;2023-04-02T01:34:07;101142.72;;;4.59;100.00
59513;BME280;45330;51.634;5.562;2023-04-02T01:39:23;101141.75;;;4.55;100.00
59513;BME280;45330;51.634;5.562;2023-04-02T01:44:32;101188.53;;;4.71;100.00
59513;BME280;45330;51.634;5.562;2023-04-02T01:47:02;101161.53;;;4.55;100.00
59513;BME280;45330;51.634;5.562;2023-04-02T01:49:29;101183.34;;;4.69;100.00
59513;BME280;45330;51.634;5.562;2023-04-02T01:51:55;101186.56;;;4.60;100.00
59513;BME280;45330;51.634;5.562;2023-04-02T01:54:22;101176.94;;;4.53;100.00
59513;BME280;45330;51.634;5.562;2023-04-02T01:56:48;101175.97;;;4.48;100.00
59513;BME280;45330;51.634;5.562;2023-04-02T01:59:18;101186.34;;;4.51;100.00
59513;BME280;45330;51.634;5.562;2023-04-02T02:02:00;101217.53;;;4.62;100.00
59513;BME280;45330;51.634;5.562;2023-04-02T02:04:27;101210.47;;;4.53;100.00
59513;BME280;45330;51.634;5.562;2023-04-02T02:06:53;101199.78;;;4.38;100.00
59513;BME280;45330;51.634;5.562;2023-04-02T02:09:24;101218.03;;;4.47;100.00
59513;BME280;45330;51.634;5.562;2023-04-02T02:11:51;101222.41;;;4.51;100.00
59513;BME280;45330;51.634;5.562;2023-04-02T02:14:19;101225.16;;;4.57;100.00
59513;BME280;45330;51.634;5.562;2023-04-02T02:16:46;101201.31;;;4.31;100.00
59513;BME280;45330;51.634;5.562;2023-04-02T02:19:28;101242.34;;;4.58;100.00
59513;BME280;45330;51.634;5.562;2023-04-02T02:22:02;101220.31;;;4.35;100.00
59513;BME280;45330;51.634;5.562;2023-04-02T02:24:31;101216.88;;;4.36;100.00
59513;BME280;45330;51.634;5.562;2023-04-02T02:30:03;101234.88;;;4.34;100.00
59513;BME280;45330;51.634;5.562;2023-04-02T02:32:32;101252.38;;;4.46;100.00
59513;BME280;45330;51.634;5.562;2023-04-02T02:35:01;101265.25;;;4.46;100.00
59513;BME280;45330;51.634;5.562;2023-04-02T02:37:34;101239.22;;;4.35;100.00
59513;BME280;45330;51.634;5.562;2023-04-02T02:40:04;101265.03;;;4.38;100.00
59513;BME280;45330;51.634;5.562;2023-04-02T02:42:35;101287.59;;;4.47;100.00
59513;BME280;45330;51.634;5.562;2023-04-02T02:45:05;101282.16;;;4.35;100.00
59513;BME280;45330;51.634;5.562;2023-04-02T02:47:36;101271.59;;;4.25;100.00
59513;BME280;45330;51.634;5.562;2023-04-02T02:50:06;101289.13;;;4.39;100.00
59513;BME280;45330;51.634;5.562;2023-04-02T02:52:37;101306.97;;;4.33;100.00
59513;BME280;45330;51.634;5.562;2023-04-02T02:55:07;101308.69;;;4.32;100.00
59513;BME280;45330;51.634;5.562;2023-04-02T02:57:38;101309.31;;;4.23;100.00
59513;BME280;45330;51.634;5.562;2023-04-02T03:00:06;101291.94;;;4.16;100.00
59513;BME280;45330;51.634;5.562;2023-04-02T03:02:36;101290.09;;;4.12;100.00
59513;BME280;45330;51.634;5.562;2023-04-02T03:05:04;101303.88;;;4.12;100.00
59513;BME280;45330;51.634;5.562;2023-04-02T03:07:31;101301.28;;;4.12;100.00
59513;BME280;45330;51.634;5.562;2023-04-02T03:10:20;101329.16;;;4.27;100.00
59513;BME280;45330;51.634;5.562;2023-04-02T03:13:28;101338.59;;;4.27;100.00
59513;BME280;45330;51.634;5.562;2023-04-02T03:18:39;101339.31;;;4.21;100.00
59513;BME280;45330;51.634;5.562;2023-04-02T03:21:22;101345.25;;;4.19;100.00
59513;BME280;45330;51.634;5.562;2023-04-02T03:26:41;101337.00;;;4.00;100.00
59513;BME280;45330;51.634;5.562;2023-04-02T03:29:28;101375.03;;;4.10;100.00
59513;BME280;45330;51.634;5.562;2023-04-02T03:32:02;101374.28;;;4.13;100.00
59513;BME280;45330;51.634;5.562;2023-04-02T03:34:52;101386.03;;;4.05;100.00
59513;BME280;45330;51.634;5.562;2023-04-02T03:37:38;101391.88;;;3.99;100.00
59513;BME280;45330;51.634;5.562;2023-04-02T03:40:09;101384.03;;;3.94;100.00
59513;BME280;45330;51.634;5.562;2023-04-02T03:43:04;101410.81;;;4.00;100.00
59513;BME280;45330;51.634;5.562;2023-04-02T03:45:40;101398.47;;;3.89;100.00
59513;BME280;45330;51.634;5.562;2023-04-02T03:48:14;101413.13;;;3.92;100.00
59513;BME280;45330;51.634;5.562;2023-04-02T03:51:09;101405.00;;;3.78;100.00
59513;BME280;45330;51.634;5.562;2023-04-02T03:53:31;101419.19;;;3.92;100.00
59513;BME280;45330;51.634;5.562;2023-04-02T03:55:58;101418.06;;;3.84;100.00
59513;BME280;45330;51.634;5.562;2023-04-02T03:58:43;101429.00;;;4.06;100.00
59513;BME280;45330;51.634;5.562;2023-04-02T04:01:26;101425.22;;;3.94;100.00
59513;BME280;45330;51.634;5.562;2023-04-02T04:03:55;101429.22;;;3.85;100.00
59513;BME280;45330;51.634;5.562;2023-04-02T04:06:32;101428.16;;;3.78;100.00
59513;BME280;45330;51.634;5.562;2023-04-02T04:09:06;101445.41;;;3.81;100.00
59513;BME280;45330;51.634;5.562;2023-04-02T04:11:42;101470.38;;;3.83;100.00
59513;BME280;45330;51.634;5.562;2023-04-02T04:16:52;101470.19;;;3.77;100.00
59513;BME280;45330;51.634;5.562;2023-04-02T04:19:24;101481.31;;;3.76;100.00
59513;BME280;45330;51.634;5.562;2023-04-02T04:22:07;101478.72;;;3.76;100.00
59513;BME280;45330;51.634;5.562;2023-04-02T04:24:33;101454.84;;;3.54;100.00
59513;BME280;45330;51.634;5.562;2023-04-02T04:27:14;101490.56;;;3.71;100.00
59513;BME280;45330;51.634;5.562;2023-04-02T04:30:06;101468.41;;;3.49;100.00
59513;BME280;45330;51.634;5.562;2023-04-02T04:32:45;101501.75;;;3.71;100.00
59513;BME280;45330;51.634;5.562;2023-04-02T04:35:26;101491.47;;;3.46;100.00
59513;BME280;45330;51.634;5.562;2023-04-02T04:37:56;101509.50;;;3.47;100.00
59513;BME280;45330;51.634;5.562;2023-04-02T04:40:25;101518.84;;;3.43;100.00
59513;BME280;45330;51.634;5.562;2023-04-02T04:42:55;101547.56;;;3.56;100.00
59513;BME280;45330;51.634;5.562;2023-04-02T04:45:39;101553.44;;;3.52;100.00
59513;BME280;45330;51.634;5.562;2023-04-02T04:48:16;101552.50;;;3.50;100.00
59513;BME280;45330;51.634;5.562;2023-04-02T04:50:56;101527.84;;;3.31;100.00
59513;BME280;45330;51.634;5.562;2023-04-02T04:53:25;101532.13;;;3.32;100.00
59513;BME280;45330;51.634;5.562;2023-04-02T04:55:52;101539.91;;;3.33;100.00
59513;BME280;45330;51.634;5.562;2023-04-02T05:04:25;101582.31;;;3.44;100.00
59513;BME280;45330;51.634;5.562;2023-04-02T05:07:16;101587.59;;;3.48;100.00
59513;BME280;45330;51.634;5.562;2023-04-02T05:12:38;101571.81;;;3.38;100.00
59513;BME280;45330;51.634;5.562;2023-04-02T05:17:41;101573.31;;;3.32;100.00
59513;BME280;45330;51.634;5.562;2023-04-02T05:20:20;101602.03;;;3.44;100.00
59513;BME280;45330;51.634;5.562;2023-04-02T05:23:04;101617.72;;;3.50;100.00
59513;BME280;45330;51.634;5.562;2023-04-02T05:25:36;101616.81;;;3.50;100.00
59513;BME280;45330;51.634;5.562;2023-04-02T05:28:18;101622.84;;;3.50;100.00
59513;BME280;45330;51.634;5.562;2023-04-02T05:31:02;101604.34;;;3.36;100.00
59513;BME280;45330;51.634;5.562;2023-04-02T05:33:31;101609.75;;;3.44;100.00
59513;BME280;45330;51.634;5.562;2023-04-02T05:38:32;101609.72;;;3.42;100.00
59513;BME280;45330;51.634;5.562;2023-04-02T05:43:32;101646.13;;;3.53;100.00
59513;BME280;45330;51.634;5.562;2023-04-02T05:46:01;101625.91;;;3.40;100.00
59513;BME280;45330;51.634;5.562;2023-04-02T05:48:37;101660.41;;;3.45;100.00
59513;BME280;45330;51.634;5.562;2023-04-02T05:51:08;101629.69;;;3.25;100.00
59513;BME280;45330;51.634;5.562;2023-04-02T05:53:59;101668.38;;;3.53;100.00
59513;BME280;45330;51.634;5.562;2023-04-02T05:56:42;101647.63;;;3.24;100.00
59513;BME280;45330;51.634;5.562;2023-04-02T05:59:14;101668.63;;;3.35;100.00
59513;BME280;45330;51.634;5.562;2023-04-02T06:05:00;101695.22;;;3.35;100.00
59513;BME280;45330;51.634;5.562;2023-04-02T06:10:22;101707.69;;;3.49;100.00
59513;BME280;45330;51.634;5.562;2023-04-02T06:12:55;101714.38;;;3.43;100.00
59513;BME280;45330;51.634;5.562;2023-04-02T06:15:28;101693.88;;;3.22;100.00
59513;BME280;45330;51.634;5.562;2023-04-02T06:18:07;101728.75;;;3.38;100.00
59513;BME280;45330;51.634;5.562;2023-04-02T06:20:33;101737.13;;;3.33;100.00
59513;BME280;45330;51.634;5.562;2023-04-02T06:23:13;101741.34;;;3.31;100.00
59513;BME280;45330;51.634;5.562;2023-04-02T06:26:02;101751.09;;;3.39;100.00
59513;BME280;45330;51.634;5.562;2023-04-02T06:28:41;101739.91;;;3.39;100.00
59513;BME280;45330;51.634;5.562;2023-04-02T06:31:29;101730.75;;;3.23;100.00
59513;BME280;45330;51.634;5.562;2023-04-02T06:33:59;101762.09;;;3.35;100.00
59513;BME280;45330;51.634;5.562;2023-04-02T06:36:26;101771.53;;;3.35;100.00
59513;BME280;45330;51.634;5.562;2023-04-02T06:38:54;101757.59;;;3.30;100.00
59513;BME280;45330;51.634;5.562;2023-04-02T06:41:23;101746.50;;;3.31;100.00
59513;BME280;45330;51.634;5.562;2023-04-02T06:46:42;101788.63;;;3.34;100.00
59513;BME280;45330;51.634;5.562;2023-04-02T06:51:53;101786.13;;;3.36;100.00
59513;BME280;45330;51.634;5.562;2023-04-02T06:54:19;101787.09;;;3.17;100.00
59513;BME280;45330;51.634;5.562;2023-04-02T06:56:50;101804.59;;;3.25;100.00
59513;BME280;45330;51.634;5.562;2023-04-02T06:59:17;101816.88;;;3.33;100.00
59513;BME280;45330;51.634;5.562;2023-04-02T07:01:52;101786.19;;;2.94;100.00
59513;BME280;45330;51.634;5.562;2023-04-02T07:04:19;101838.97;;;3.06;100.00
59513;BME280;45330;51.634;5.562;2023-04-02T07:06:46;101843.69;;;3.17;100.00
59513;BME280;45330;51.634;5.562;2023-04-02T07:09:11;101829.63;;;3.08;100.00
59513;BME280;45330;51.634;5.562;2023-04-02T07:11:37;101850.66;;;3.19;100.00
59513;BME280;45330;51.634;5.562;2023-04-02T07:14:02;101842.50;;;3.08;100.00
59513;BME280;45330;51.634;5.562;2023-04-02T07:16:30;101844.63;;;3.19;100.00
59513;BME280;45330;51.634;5.562;2023-04-02T07:18:56;101867.06;;;3.23;100.00
59513;BME280;45330;51.634;5.562;2023-04-02T07:21:25;101848.31;;;3.04;100.00
59513;BME280;45330;51.634;5.562;2023-04-02T07:23:52;101863.00;;;3.07;100.00
59513;BME280;45330;51.634;5.562;2023-04-02T07:26:23;101861.25;;;3.06;100.00
59513;BME280;45330;51.634;5.562;2023-04-02T07:28:50;101892.72;;;3.21;100.00
59513;BME280;45330;51.634;5.562;2023-04-02T07:31:18;101889.97;;;3.17;100.00
59513;BME280;45330;51.634;5.562;2023-04-02T07:33:44;101866.72;;;2.92;100.00
59513;BME280;45330;51.634;5.562;2023-04-02T07:36:15;101903.25;;;3.06;100.00
59513;BME280;45330;51.634;5.562;2023-04-02T07:38:41;101876.56;;;3.03;100.00
59513;BME280;45330;51.634;5.562;2023-04-02T07:41:06;101889.16;;;3.18;100.00
59513;BME280;45330;51.634;5.562;2023-04-02T07:43:31;101921.97;;;3.23;100.00
59513;BME280;45330;51.634;5.562;2023-04-02T07:45:57;101889.22;;;2.98;100.00
59513;BME280;45330;51.634;5.562;2023-04-02T07:48:22;101893.91;;;2.87;100.00
59513;BME280;45330;51.634;5.562;2023-04-02T07:50:48;101938.25;;;3.03;100.00
59513;BME280;45330;51.634;5.562;2023-04-02T07:53:39;101912.38;;;2.98;100.00
59513;BME280;45330;51.634;5.562;2023-04-02T07:56:07;101912.16;;;2.94;100.00
59513;BME280;45330;51.634;5.562;2023-04-02T07:58:32;101929.50;;;3.19;100.00
59513;BME280;45330;51.634;5.562;2023-04-02T08:00:59;101933.38;;;3.30;100.00
59513;BME280;45330;51.634;5.562;2023-04-02T08:03:25;101946.31;;;3.32;100.00
59513;BME280;45330;51.634;5.562;2023-04-02T08:05:56;101947.50;;;3.40;100.00
59513;BME280;45330;51.634;5.562;2023-04-02T08:08:23;101948.47;;;3.42;100.00
59513;BME280;45330;51.634;5.562;2023-04-02T08:10:49;101946.00;;;3.24;100.00
59513;BME280;45330;51.634;5.562;2023-04-02T08:13:16;101956.09;;;3.19;100.00
59513;BME280;45330;51.634;5.562;2023-04-02T08:15:42;101964.75;;;3.21;100.00
59513;BME280;45330;51.634;5.562;2023-04-02T08:18:08;101963.94;;;3.22;100.00
59513;BME280;45330;51.634;5.562;2023-04-02T08:20:34;101952.56;;;3.17;100.00
59513;BME280;45330;51.634;5.562;2023-04-02T08:23:00;101971.41;;;3.37;100.00
59513;BME280;45330;51.634;5.562;2023-04-02T08:25:26;101948.94;;;3.33;100.00
59513;BME280;45330;51.634;5.562;2023-04-02T08:27:51;101958.69;;;3.40;100.00
59513;BME280;45330;51.634;5.562;2023-04-02T08:30:17;101973.50;;;3.46;100.00
59513;BME280;45330;51.634;5.562;2023-04-02T08:32:43;101975.81;;;3.40;100.00
59513;BME280;45330;51.634;5.562;2023-04-02T08:35:13;101996.66;;;3.46;100.00
59513;BME280;45330;51.634;5.562;2023-04-02T08:37:40;102003.25;;;3.60;100.00
59513;BME280;45330;51.634;5.562;2023-04-02T08:40:07;102020.25;;;3.57;100.00
59513;BME280;45330;51.634;5.562;2023-04-02T08:45:20;102032.38;;;3.59;100.00
59513;BME280;45330;51.634;5.562;2023-04-02T08:47:50;102008.69;;;3.47;100.00
59513;BME280;45330;51.634;5.562;2023-04-02T08:50:27;102036.91;;;3.65;100.00
59513;BME280;45330;51.634;5.562;2023-04-02T08:52:53;102027.03;;;3.55;100.00
59513;BME280;45330;51.634;5.562;2023-04-02T08:55:32;102052.91;;;3.79;100.00
59513;BME280;45330;51.634;5.562;2023-04-02T09:00:52;102032.75;;;3.48;100.00
59513;BME280;45330;51.634;5.562;2023-04-02T09:05:50;102056.41;;;3.60;100.00
59513;BME280;45330;51.634;5.562;2023-04-02T09:08:22;102066.28;;;3.70;100.00
59513;BME280;45330;51.634;5.562;2023-04-02T09:10:54;102049.31;;;3.54;100.00
59513;BME280;45330;51.634;5.562;2023-04-02T09:13:26;102078.53;;;3.76;100.00
59513;BME280;45330;51.634;5.562;2023-04-02T09:16:01;102070.63;;;3.71;100.00
59513;BME280;45330;51.634;5.562;2023-04-02T09:18:29;102082.44;;;3.87;100.00
59513;BME280;45330;51.634;5.562;2023-04-02T09:20:56;102041.69;;;3.56;100.00
59513;BME280;45330;51.634;5.562;2023-04-02T09:23:23;102090.34;;;3.92;100.00
59513;BME280;45330;51.634;5.562;2023-04-02T09:25:51;102096.06;;;3.85;100.00
59513;BME280;45330;51.634;5.562;2023-04-02T09:28:18;102104.16;;;3.73;100.00
59513;BME280;45330;51.634;5.562;2023-04-02T09:31:14;102100.38;;;3.65;100.00
59513;BME280;45330;51.634;5.562;2023-04-02T09:33:46;102104.38;;;3.58;100.00
59513;BME280;45330;51.634;5.562;2023-04-02T09:36:35;102115.81;;;3.65;100.00
59513;BME280;45330;51.634;5.562;2023-04-02T09:41:31;102104.19;;;3.53;100.00
59513;BME280;45330;51.634;5.562;2023-04-02T09:46:54;102125.00;;;3.79;100.00
59513;BME280;45330;51.634;5.562;2023-04-02T09:49:25;102148.88;;;3.75;100.00
59513;BME280;45330;51.634;5.562;2023-04-02T09:52:27;102151.16;;;3.88;100.00
59513;BME280;45330;51.634;5.562;2023-04-02T09:57:44;102155.84;;;3.58;100.00
59513;BME280;45330;51.634;5.562;2023-04-02T10:00:18;102162.66;;;3.56;100.00
59513;BME280;45330;51.634;5.562;2023-04-02T10:02:45;102138.44;;;3.52;100.00
59513;BME280;45330;51.634;5.562;2023-04-02T10:05:18;102166.63;;;3.88;100.00
59513;BME280;45330;51.634;5.562;2023-04-02T10:07:50;102179.81;;;3.96;100.00
59513;BME280;45330;51.634;5.562;2023-04-02T10:13:30;102189.22;;;3.95;100.00
59513;BME280;45330;51.634;5.562;2023-04-02T10:16:18;102189.31;;;4.18;100.00
59513;BME280;45330;51.634;5.562;2023-04-02T10:21:35;102171.44;;;4.02;100.00
59513;BME280;45330;51.634;5.562;2023-04-02T10:24:02;102159.69;;;3.87;100.00
59513;BME280;45330;51.634;5.562;2023-04-02T10:26:35;102196.31;;;4.21;100.00
59513;BME280;45330;51.634;5.562;2023-04-02T10:35:04;102188.94;;;4.30;100.00
59513;BME280;45330;51.634;5.562;2023-04-02T10:39:52;102213.31;;;4.80;100.00
59513;BME280;45330;51.634;5.562;2023-04-02T10:42:31;102179.91;;;4.84;100.00
59513;BME280;45330;51.634;5.562;2023-04-02T10:45:05;102198.16;;;4.88;100.00
59513;BME280;45330;51.634;5.562;2023-04-02T10:50:27;102211.00;;;5.09;100.00
59513;BME280;45330;51.634;5.562;2023-04-02T10:53:14;102218.56;;;5.27;100.00
59513;BME280;45330;51.634;5.562;2023-04-02T10:55:44;102207.78;;;5.15;100.00
59513;BME280;45330;51.634;5.562;2023-04-02T10:58:24;102237.56;;;5.29;100.00
59513;BME280;45330;51.634;5.562;2023-04-02T11:00:54;102239.13;;;5.26;100.00
59513;BME280;45330;51.634;5.562;2023-04-02T11:05:49;102225.38;;;5.25;100.00
59513;BME280;45330;51.634;5.562;2023-04-02T11:11:13;102236.28;;;5.41;100.00
59513;BME280;45330;51.634;5.562;2023-04-02T11:16:10;102228.59;;;5.42;100.00
59513;BME280;45330;51.634;5.562;2023-04-02T11:18:39;102258.56;;;5.61;100.00
59513;BME280;45330;51.634;5.562;2023-04-02T11:23:56;102263.34;;;5.75;100.00
59513;BME280;45330;51.634;5.562;2023-04-02T11:26:32;102256.50;;;5.75;100.00
59513;BME280;45330;51.634;5.562;2023-04-02T11:29:01;102259.88;;;5.74;100.00
59513;BME280;45330;51.634;5.562;2023-04-02T11:31:29;102269.78;;;5.86;100.00
59513;BME280;45330;51.634;5.562;2023-04-02T11:33:54;102286.09;;;6.08;100.00
59513;BME280;45330;51.634;5.562;2023-04-02T11:42:22;102294.69;;;5.84;100.00
59513;BME280;45330;51.634;5.562;2023-04-02T11:44:49;102271.59;;;5.64;100.00
59513;BME280;45330;51.634;5.562;2023-04-02T11:52:33;102312.97;;;6.13;100.00
59513;BME280;45330;51.634;5.562;2023-04-02T11:55:25;102312.81;;;6.32;100.00
59513;BME280;45330;51.634;5.562;2023-04-02T12:09:21;102334.44;;;5.65;100.00
59513;BME280;45330;51.634;5.562;2023-04-02T12:11:49;102323.38;;;5.24;100.00
59513;BME280;45330;51.634;5.562;2023-04-02T12:16:57;102341.19;;;5.39;100.00
59513;BME280;45330;51.634;5.562;2023-04-02T12:19:24;102348.38;;;5.04;100.00
59513;BME280;45330;51.634;5.562;2023-04-02T12:21:51;102355.28;;;5.05;100.00
59513;BME280;45330;51.634;5.562;2023-04-02T12:24:20;102334.16;;;4.92;100.00
59513;BME280;45330;51.634;5.562;2023-04-02T12:26:46;102357.94;;;5.06;100.00
59513;BME280;45330;51.634;5.562;2023-04-02T12:31:46;102360.59;;;5.29;100.00
59513;BME280;45330;51.634;5.562;2023-04-02T12:34:18;102353.97;;;5.58;100.00
59513;BME280;45330;51.634;5.562;2023-04-02T12:36:54;102365.50;;;6.12;100.00
59513;BME280;45330;51.634;5.562;2023-04-02T12:39:20;102360.28;;;6.59;100.00
59513;BME280;45330;51.634;5.562;2023-04-02T12:41:46;102362.88;;;6.84;100.00
59513;BME280;45330;51.634;5.562;2023-04-02T12:44:14;102369.44;;;7.00;100.00
59513;BME280;45330;51.634;5.562;2023-04-02T12:46:44;102361.59;;;7.25;100.00
59513;BME280;45330;51.634;5.562;2023-04-02T12:49:32;102367.88;;;7.06;100.00
59513;BME280;45330;51.634;5.562;2023-04-02T12:52:02;102356.50;;;6.75;100.00
59513;BME280;45330;51.634;5.562;2023-04-02T12:54:34;102346.25;;;6.52;100.00
59513;BME280;45330;51.634;5.562;2023-04-02T12:59:44;102369.22;;;6.43;100.00
59513;BME280;45330;51.634;5.562;2023-04-02T13:02:21;102366.75;;;6.72;100.00
59513;BME280;45330;51.634;5.562;2023-04-02T13:04:52;102367.78;;;7.02;100.00
59513;BME280;45330;51.634;5.562;2023-04-02T13:07:20;102367.41;;;7.17;99.01
59513;BME280;45330;51.634;5.562;2023-04-02T13:09:48;102343.97;;;6.87;95.71
59513;BME280;45330;51.634;5.562;2023-04-02T13:12:24;102371.91;;;6.97;98.07
59513;BME280;45330;51.634;5.562;2023-04-02T13:14:53;102379.03;;;7.04;99.07
59513;BME280;45330;51.634;5.562;2023-04-02T13:17:40;102370.78;;;6.89;97.88
59513;BME280;45330;51.634;5.562;2023-04-02T13:20:27;102369.31;;;6.72;95.00
59513;BME280;45330;51.634;5.562;2023-04-02T13:22:53;102352.75;;;6.66;94.95
59513;BME280;45330;51.634;5.562;2023-04-02T13:25:25;102375.31;;;6.70;89.62
59513;BME280;45330;51.634;5.562;2023-04-02T13:27:51;102362.66;;;6.78;90.15
59513;BME280;45330;51.634;5.562;2023-04-02T13:30:22;102340.25;;;6.79;87.53
59513;BME280;45330;51.634;5.562;2023-04-02T13:32:47;102352.72;;;6.91;89.69
59513;BME280;45330;51.634;5.562;2023-04-02T13:35:13;102365.41;;;6.83;83.10
59513;BME280;45330;51.634;5.562;2023-04-02T13:37:38;102364.69;;;6.87;84.47
59513;BME280;45330;51.634;5.562;2023-04-02T13:40:04;102361.50;;;6.96;87.45
59513;BME280;45330;51.634;5.562;2023-04-02T13:42:30;102377.72;;;7.16;85.42
59513;BME280;45330;51.634;5.562;2023-04-02T13:44:55;102376.97;;;7.20;81.92
59513;BME280;45330;51.634;5.562;2023-04-02T13:47:20;102388.69;;;7.09;82.66
59513;BME280;45330;51.634;5.562;2023-04-02T13:49:46;102354.00;;;7.03;81.42
59513;BME280;45330;51.634;5.562;2023-04-02T13:52:13;102383.59;;;7.10;80.08
59513;BME280;45330;51.634;5.562;2023-04-02T13:57:07;102378.53;;;7.15;80.45
59513;BME280;45330;51.634;5.562;2023-04-02T13:59:33;102378.09;;;7.28;82.93
59513;BME280;45330;51.634;5.562;2023-04-02T14:02:12;102386.06;;;7.34;80.41
59513;BME280;45330;51.634;5.562;2023-04-02T14:04:44;102396.44;;;7.34;77.12
59513;BME280;45330;51.634;5.562;2023-04-02T14:15:24;102372.28;;;7.35;77.03
59513;BME280;45330;51.634;5.562;2023-04-02T14:24:07;102404.94;;;7.58;78.29
59513;BME280;45330;51.634;5.562;2023-04-02T14:26:45;102399.72;;;7.29;73.96
59513;BME280;45330;51.634;5.562;2023-04-02T14:29:27;102418.06;;;7.36;75.44
59513;BME280;45330;51.634;5.562;2023-04-02T14:32:05;102420.94;;;7.44;78.04
59513;BME280;45330;51.634;5.562;2023-04-02T14:37:09;102418.78;;;7.58;78.63
59513;BME280;45330;51.634;5.562;2023-04-02T14:45:11;102411.91;;;7.60;75.33
59513;BME280;45330;51.634;5.562;2023-04-02T14:47:45;102416.06;;;7.55;75.79
59513;BME280;45330;51.634;5.562;2023-04-02T14:50:24;102417.09;;;7.60;75.50
59513;BME280;45330;51.634;5.562;2023-04-02T14:52:55;102412.75;;;7.59;75.81
59513;BME280;45330;51.634;5.562;2023-04-02T14:55:43;102430.44;;;7.72;75.60
59513;BME280;45330;51.634;5.562;2023-04-02T14:58:31;102408.41;;;7.58;73.62
59513;BME280;45330;51.634;5.562;2023-04-02T15:01:02;102415.38;;;7.61;73.45
59513;BME280;45330;51.634;5.562;2023-04-02T15:03:36;102427.59;;;7.65;73.41
59513;BME280;45330;51.634;5.562;2023-04-02T15:06:15;102434.84;;;7.75;75.28
59513;BME280;45330;51.634;5.562;2023-04-02T15:08:48;102424.44;;;7.73;76.64
59513;BME280;45330;51.634;5.562;2023-04-02T15:11:20;102432.88;;;7.95;77.55
59513;BME280;45330;51.634;5.562;2023-04-02T15:14:05;102439.81;;;7.96;80.07
59513;BME280;45330;51.634;5.562;2023-04-02T15:16:34;102440.47;;;7.89;73.82
59513;BME280;45330;51.634;5.562;2023-04-02T15:19:02;102437.50;;;7.77;72.66
59513;BME280;45330;51.634;5.562;2023-04-02T15:21:40;102453.09;;;7.78;70.76
59513;BME280;45330;51.634;5.562;2023-04-02T15:27:14;102435.06;;;7.83;71.38
59513;BME280;45330;51.634;5.562;2023-04-02T15:37:48;102462.41;;;8.00;70.89
59513;BME280;45330;51.634;5.562;2023-04-02T15:43:13;102466.78;;;8.03;71.01
59513;BME280;45330;51.634;5.562;2023-04-02T15:45:50;102460.91;;;8.08;71.58
59513;BME280;45330;51.634;5.562;2023-04-02T15:53:44;102448.63;;;8.03;71.45
59513;BME280;45330;51.634;5.562;2023-04-02T15:56:33;102459.00;;;8.03;70.61
59513;BME280;45330;51.634;5.562;2023-04-02T16:01:50;102476.28;;;8.02;74.23
59513;BME280;45330;51.634;5.562;2023-04-02T16:12:20;102466.75;;;8.01;70.53
59513;BME280;45330;51.634;5.562;2023-04-02T16:14:48;102481.50;;;8.04;71.14
59513;BME280;45330;51.634;5.562;2023-04-02T16:17:25;102479.56;;;7.97;72.62
59513;BME280;45330;51.634;5.562;2023-04-02T16:20:07;102468.72;;;7.81;69.69
59513;BME280;45330;51.634;5.562;2023-04-02T16:22:38;102467.63;;;7.75;69.48
59513;BME280;45330;51.634;5.562;2023-04-02T16:25:15;102504.38;;;7.88;68.87
59513;BME280;45330;51.634;5.562;2023-04-02T16:27:51;102500.94;;;7.89;68.87
59513;BME280;45330;51.634;5.562;2023-04-02T16:38:19;102512.59;;;7.75;69.10
59513;BME280;45330;51.634;5.562;2023-04-02T16:46:32;102528.59;;;7.63;68.71
59513;BME280;45330;51.634;5.562;2023-04-02T17:00:03;102519.63;;;7.28;72.01
59513;BME280;45330;51.634;5.562;2023-04-02T17:02:52;102551.81;;;7.34;70.95